M I D A S
Marine Information and Data Acquisition System
Tripno 866 of the Zeeleeuw from 2005-03-18 07:07:38 to 2005-03-18 15:38:58
Back to CruiseResearch ActivitiesStationsMapUnderway DataData graphs

EquipmentUnitsComment
TimeDGPSUTC
LatitudeDGPSDM.mWGS84
LongitudeDGPSDM.mWGS84
HeadingGyrodeg 
SOGDGPSknotsSpeed over ground
COGDGPSdegCourse over ground
DepthEcho soundermeters200 kHz
Missing or incorrect values are displayed as -999
Navigation data collected by the RV Zeeleeuw from 2005-03-18 07:08:53 to 2005-03-18 15:40:54
Time Latitude Longitude Heading SOG COG Depth
2005-03-18 07:09:59 51°13.606 2°56.06 120.8 0.5 109 -999
2005-03-18 07:10:58 51°13.574 2°56.122 139.7 3.7 137 10.5
2005-03-18 07:11:57 51°13.542 2°56.205 96.5 3.8 91 10.6
2005-03-18 07:12:59 51°13.539 2°56.217 71.7 1.2 245 -999
2005-03-18 07:13:58 51°13.539 2°56.222 40 2 215 5
2005-03-18 07:14:59 51°13.542 2°56.226 10.2 1.5 175 -999
2005-03-18 07:15:59 51°13.546 2°56.219 336.6 1.2 351 -999
2005-03-18 07:16:59 51°13.534 2°56.236 322.9 1.5 321 -999
2005-03-18 07:17:58 51°13.566 2°56.127 299.7 5.8 298 10.5
2005-03-18 07:18:58 51°13.625 2°55.976 306 7.1 303 -999
2005-03-18 07:19:59 51°13.704 2°55.796 311.3 9.2 308 -999
2005-03-18 07:20:58 51°13.832 2°55.632 334.9 10.3 330 -999
2005-03-18 07:21:59 51°13.992 2°55.515 340.4 10.6 337 10.9
2005-03-18 07:22:58 51°14.152 2°55.399 336.5 10.9 331 11.3
2005-03-18 07:23:57 51°14.292 2°55.219 317.2 11 314 11.3
2005-03-18 07:24:57 51°14.409 2°54.983 315 11.8 312 11.8
2005-03-18 07:25:58 51°14.573 2°54.754 322.6 13.4 321 11.2
2005-03-18 07:26:58 51°14.736 2°54.514 313.8 13.1 313 11.1
2005-03-18 07:27:58 51°14.87 2°54.243 308.4 13 307 10.7
2005-03-18 07:28:58 51°14.972 2°53.94 299.4 13.1 297 10.7
2005-03-18 07:29:58 51°15.061 2°53.627 295.7 13.1 293 11
2005-03-18 07:30:58 51°15.148 2°53.307 296.1 13.2 294 11.4
2005-03-18 07:31:58 51°15.238 2°52.989 296.6 13.1 295 11.8
2005-03-18 07:32:58 51°15.305 2°52.66 286.2 13.1 285 12.4
2005-03-18 07:33:58 51°15.359 2°52.326 286 12.9 284 12.8
2005-03-18 07:34:58 51°15.416 2°51.995 287.6 13 286 13.3
2005-03-18 07:35:59 51°15.478 2°51.664 287.7 12.9 286 13.5
2005-03-18 07:36:59 51°15.538 2°51.335 288 12.8 286 13.8
2005-03-18 07:37:58 51°15.588 2°51.007 283.8 12.9 283 14
2005-03-18 07:38:59 51°15.63 2°50.664 282.7 12.9 280 14.1
2005-03-18 07:39:58 51°15.671 2°50.333 283.3 12.9 281 14.1
2005-03-18 07:40:58 51°15.713 2°49.994 283.2 12.9 282 14
2005-03-18 07:41:59 51°15.744 2°49.652 277.8 12.9 276 12.7
2005-03-18 07:42:58 51°15.765 2°49.318 277.6 13 275 11.8
2005-03-18 07:43:58 51°15.786 2°48.972 277.7 13.1 276 12.1
2005-03-18 07:44:58 51°15.807 2°48.628 278.2 13 275 12.8
2005-03-18 07:45:59 51°15.83 2°48.281 278.1 13 276 14.1
2005-03-18 07:46:59 51°15.853 2°47.939 278.5 12.9 276 15.5
2005-03-18 07:47:59 51°15.876 2°47.598 278.1 12.9 277 16.8
2005-03-18 07:48:59 51°15.898 2°47.259 274.8 12.7 273 17.3
2005-03-18 07:49:58 51°15.909 2°46.922 273.8 12.8 272 17.7
2005-03-18 07:50:58 51°15.92 2°46.581 274.3 12.8 273 17.2
2005-03-18 07:51:59 51°15.934 2°46.241 277.1 12.7 272 16.1
2005-03-18 07:52:59 51°16.037 2°45.941 304.3 13.1 303 13.1
2005-03-18 07:53:58 51°16.161 2°45.656 305.9 13.2 306 12.2
2005-03-18 07:54:59 51°16.289 2°45.365 305.5 13.5 305 12
2005-03-18 07:55:58 51°16.414 2°45.074 305.9 13.3 304 12.4
2005-03-18 07:56:58 51°16.543 2°44.783 307 13.5 306 11.5
2005-03-18 07:57:58 51°16.674 2°44.493 307 13.4 306 14
2005-03-18 07:58:58 51°16.806 2°44.202 306.3 13.4 306 16
2005-03-18 07:59:58 51°16.933 2°43.913 307 13.4 305 16.2
2005-03-18 08:00:58 51°17.062 2°43.62 307.4 13.4 306 15.6
2005-03-18 08:01:59 51°17.192 2°43.327 307.4 13.3 305 13.8
2005-03-18 08:02:58 51°17.318 2°43.042 307.3 13.2 307 12.2
2005-03-18 08:03:58 51°17.446 2°42.755 307.7 13.5 306 13.4
2005-03-18 08:04:59 51°17.581 2°42.466 307 13.4 306 23.3
2005-03-18 08:05:58 51°17.716 2°42.183 307.7 13.5 309 24.6
2005-03-18 08:06:58 51°17.845 2°41.896 306.6 13.3 306 25
2005-03-18 08:07:58 51°17.98 2°41.614 308.3 13.4 307 24.2
2005-03-18 08:08:58 51°18.114 2°41.335 309.4 13.3 308 22.8
2005-03-18 08:09:59 51°18.25 2°41.05 309.2 13.3 307 20.4
2005-03-18 08:10:58 51°18.384 2°40.775 309.6 13.2 308 18
2005-03-18 08:11:58 51°18.52 2°40.497 309.4 13.2 308 16.7
2005-03-18 08:12:58 51°18.658 2°40.222 309.3 13.3 309 23.3
2005-03-18 08:13:59 51°18.798 2°39.945 309.3 13.2 309 24.1
2005-03-18 08:14:59 51°18.935 2°39.668 308.8 13.2 307 24.8
2005-03-18 08:15:58 51°19.071 2°39.391 309.3 13.4 307 26.9
2005-03-18 08:16:58 51°19.206 2°39.115 308.7 13.2 307 29.1
2005-03-18 08:17:58 51°19.338 2°38.836 309.5 13.2 308 28.9
2005-03-18 08:18:59 51°19.474 2°38.553 309.4 13.3 308 26
2005-03-18 08:19:58 51°19.607 2°38.273 309.2 13.3 307 23.2
2005-03-18 08:20:59 51°19.743 2°37.989 309.7 13.4 308 23
2005-03-18 08:21:58 51°19.876 2°37.711 309.3 13.3 307 20.8
2005-03-18 08:22:58 51°20.01 2°37.43 308.9 13.2 307 22.9
2005-03-18 08:23:59 51°20.145 2°37.148 309.2 13.2 306 22.8
2005-03-18 08:24:58 51°20.279 2°36.87 308.7 13.3 306 21.4
2005-03-18 08:25:58 51°20.414 2°36.588 309.2 13.3 307 21.7
2005-03-18 08:26:59 51°20.559 2°36.318 320.1 13.5 318 20.8
2005-03-18 08:27:59 51°20.767 2°36.239 0.4 12.2 354 22.6
2005-03-18 08:28:58 51°20.962 2°36.241 3.3 11.8 -999 26.1
2005-03-18 08:29:59 51°21.162 2°36.244 3.7 12 2 29.4
2005-03-18 08:30:58 51°21.36 2°36.251 5 12.2 4 31.6
2005-03-18 08:31:58 51°21.563 2°36.269 7.1 12.2 3 31.3
2005-03-18 08:32:59 51°21.771 2°36.288 7.1 12.3 -999 32.3
2005-03-18 08:33:58 51°21.972 2°36.311 7.1 12.4 5 31.8
2005-03-18 08:34:58 51°22.179 2°36.331 6.9 12.8 -999 30.6
2005-03-18 08:35:58 51°22.393 2°36.356 7.1 13 3 30.2
2005-03-18 08:36:58 51°22.614 2°36.344 355.7 13.7 355 28.8
2005-03-18 08:37:58 51°22.816 2°36.187 333.6 13.6 331 28.9
2005-03-18 08:38:58 51°22.994 2°35.969 321.8 13.6 320 23.7
2005-03-18 08:39:58 51°23.172 2°35.74 324 13.8 323 24.9
2005-03-18 08:40:58 51°23.307 2°35.476 292 12.7 286 30.7
2005-03-18 08:41:58 51°23.337 2°35.136 279.2 13 278 31.7
2005-03-18 08:42:59 51°23.364 2°34.788 279.4 13.1 277 31.8
2005-03-18 08:43:58 51°23.394 2°34.452 280.8 13 279 33.5
2005-03-18 08:44:58 51°23.425 2°34.108 279.8 12.9 279 32.5
2005-03-18 08:45:58 51°23.455 2°33.768 280.3 13 279 32.3
2005-03-18 08:46:59 51°23.487 2°33.426 279.8 12.9 278 31.4
2005-03-18 08:47:58 51°23.527 2°33.095 290.1 12.9 290 31.1
2005-03-18 08:48:59 51°23.634 2°32.79 301.3 13.1 300 32
2005-03-18 08:49:59 51°23.742 2°32.485 301.6 13.1 300 29
2005-03-18 08:50:58 51°23.846 2°32.19 301.4 13 300 23.7
2005-03-18 08:51:58 51°23.954 2°31.883 300.9 13.2 298 25
2005-03-18 08:52:58 51°24.058 2°31.575 298.6 13.2 297 28.6
2005-03-18 08:53:58 51°24.143 2°31.254 291.2 13 289 30.4
2005-03-18 08:54:58 51°24.128 2°30.925 252.5 12.6 254 33.9
2005-03-18 08:55:58 51°24.03 2°30.666 235.8 10 233 32.9
2005-03-18 08:56:59 51°23.96 2°30.459 238.8 8.4 238 33.4
2005-03-18 08:57:58 51°23.89 2°30.243 244.6 9.6 242 32.7
2005-03-18 08:58:58 51°23.817 2°30.047 236.4 7.3 237 33.5
2005-03-18 08:59:59 51°23.769 2°29.905 243.2 5 242 33.4
2005-03-18 09:00:58 51°23.742 2°29.827 244.5 2.6 246 33.5
2005-03-18 09:01:59 51°23.733 2°29.785 245 1.1 253 32
2005-03-18 09:02:58 51°23.716 2°29.742 232.8 1.8 233 33
2005-03-18 09:03:58 51°23.64 2°29.622 221.3 7.5 219 34.1
2005-03-18 09:04:58 51°23.639 2°29.492 305.9 4.7 307 33.8
2005-03-18 09:05:58 51°23.719 2°29.502 36.1 5.3 37 34
2005-03-18 09:06:59 51°23.738 2°29.617 110.6 3.6 95 33.7
2005-03-18 09:07:59 51°23.73 2°29.702 112.5 3 95 33.4
2005-03-18 09:08:59 51°23.728 2°29.779 112.2 2.6 87 30.1
2005-03-18 09:10:00 51°23.742 2°29.796 116.7 1.4 340 -999
2005-03-18 09:10:58 51°23.756 2°29.807 115.1 2.2 93 32.9
2005-03-18 09:11:58 51°23.753 2°29.851 157 1.1 78 33.4
2005-03-18 09:12:58 51°23.794 2°29.842 144.2 2.6 340 32.9
2005-03-18 09:13:59 51°23.78 2°29.87 177 3.5 161 33.1
2005-03-18 09:14:59 51°23.74 2°29.833 242.4 2.1 238 33.8
2005-03-18 09:15:59 51°23.744 2°29.803 272.7 1 317 32
2005-03-18 09:16:58 51°23.764 2°29.79 300.9 1.2 348 32.8
2005-03-18 09:17:58 51°23.808 2°29.768 344 4.3 349 32.6
2005-03-18 09:18:58 51°23.871 2°29.844 73.5 5.3 59 33.2
2005-03-18 09:19:59 51°23.835 2°29.947 163.2 4.3 153 33.3
2005-03-18 09:20:59 51°23.785 2°29.933 221.5 2.3 215 33.4
2005-03-18 09:21:58 51°23.768 2°29.892 242.9 1.9 244 33.4
2005-03-18 09:22:58 51°23.757 2°29.851 237.9 1.5 243 33.2
2005-03-18 09:23:58 51°23.747 2°29.817 238.8 1.3 245 33.2
2005-03-18 09:24:58 51°23.74 2°29.792 239.3 0.8 254 32.3
2005-03-18 09:25:58 51°23.732 2°29.781 205.4 0.5 177 31.7
2005-03-18 09:26:59 51°23.729 2°29.797 181.5 0.8 99 28.1
2005-03-18 09:27:59 51°23.724 2°29.82 172.1 0.9 102 33.6
2005-03-18 09:28:58 51°23.725 2°29.844 169.1 0.9 80 33.4
2005-03-18 09:29:59 51°23.729 2°29.868 167.1 0.9 64 33.5
2005-03-18 09:30:59 51°23.736 2°29.891 161.4 1 60 33.1
2005-03-18 09:31:59 51°23.746 2°29.915 154.5 1.1 56 33.2
2005-03-18 09:32:59 51°23.757 2°29.937 149.3 1.1 48 33.7
2005-03-18 09:33:59 51°23.752 2°29.991 115 2.9 100 33.4
2005-03-18 09:34:58 51°23.775 2°30.07 48.2 3.7 41 32.9
2005-03-18 09:35:58 51°23.833 2°30.079 338.8 3.5 345 32.7
2005-03-18 09:36:58 51°23.867 2°30.01 275.1 3.7 276 33.4
2005-03-18 09:37:58 51°23.82 2°29.937 207.3 5 204 33.1
2005-03-18 09:38:58 51°23.745 2°29.845 220.8 5.9 222 33.4
2005-03-18 09:39:58 51°23.706 2°29.754 262.3 4.2 259 32.5
2005-03-18 09:40:58 51°23.716 2°29.735 319.3 0.7 28 32.9
2005-03-18 09:41:59 51°23.723 2°29.751 350.2 0.6 96 33
2005-03-18 09:42:59 51°23.725 2°29.769 6.5 0.7 64 32.6
2005-03-18 09:43:58 51°23.727 2°29.786 6.9 1.1 145 28.1
2005-03-18 09:44:59 51°23.707 2°29.795 20 1.1 159 33.1
2005-03-18 09:45:58 51°23.704 2°29.807 22.1 0.6 98 33.1
2005-03-18 09:46:58 51°23.711 2°29.823 12.9 0.8 48 33.3
2005-03-18 09:47:59 51°23.723 2°29.839 357.4 0.9 29 33.5
2005-03-18 09:48:58 51°23.735 2°29.85 343.3 0.9 30 33.1
2005-03-18 09:49:59 51°23.748 2°29.862 338.5 0.9 27 32.8
2005-03-18 09:50:59 51°23.761 2°29.872 334.9 1 35 33.6
2005-03-18 09:51:59 51°23.774 2°29.883 330.9 0.9 24 33.1
2005-03-18 09:52:58 51°23.794 2°29.87 305.6 3.1 311 32.6
2005-03-18 09:53:59 51°23.772 2°29.789 210.3 3.5 205 32.9
2005-03-18 09:54:58 51°23.726 2°29.781 198.5 2.9 185 29.4
2005-03-18 09:55:58 51°23.69 2°29.789 184.4 1.8 163 32.3
2005-03-18 09:56:59 51°23.651 2°29.76 235.1 3.3 232 33.3
2005-03-18 09:57:59 51°23.662 2°29.688 309.6 2.2 312 33.1
2005-03-18 09:58:58 51°23.68 2°29.688 345.4 1.2 10 32.9
2005-03-18 09:59:58 51°23.7 2°29.693 338.9 1.1 8 33.4
2005-03-18 10:00:58 51°23.718 2°29.698 332.2 1 12 33.4
2005-03-18 10:01:59 51°23.734 2°29.703 332.4 0.9 9 33.1
2005-03-18 10:02:58 51°23.749 2°29.709 331.6 0.9 20 33.2
2005-03-18 10:03:58 51°23.763 2°29.718 331 0.9 22 32.8
2005-03-18 10:04:59 51°23.778 2°29.725 330.6 1 24 32.8
2005-03-18 10:05:58 51°23.804 2°29.699 298 2.7 306 33
2005-03-18 10:06:58 51°23.786 2°29.613 220.6 4.2 236 33.5
2005-03-18 10:07:59 51°23.735 2°29.627 169.1 1.8 156 33
2005-03-18 10:08:58 51°23.719 2°29.644 180.5 1.1 133 33.3
2005-03-18 10:09:58 51°23.712 2°29.658 180 0.6 112 33.6
2005-03-18 10:10:59 51°23.71 2°29.675 180.7 0.7 90 33.6
2005-03-18 10:11:59 51°23.715 2°29.691 170.2 0.8 54 33.6
2005-03-18 10:12:58 51°23.724 2°29.708 155.4 0.8 52 32.8
2005-03-18 10:13:59 51°23.733 2°29.725 141.9 0.8 46 32.7
2005-03-18 10:14:58 51°23.742 2°29.739 136.7 0.8 39 32.6
2005-03-18 10:15:59 51°23.758 2°29.737 123.3 0.8 354 32.6
2005-03-18 10:16:59 51°23.769 2°29.742 119.4 0.8 24 32.5
2005-03-18 10:17:59 51°23.778 2°29.754 125.7 0.6 43 32.5
2005-03-18 10:18:59 51°23.783 2°29.77 141.2 0.8 63 32.3
2005-03-18 10:19:59 51°23.788 2°29.784 148.6 0.9 54 32.4
2005-03-18 10:20:58 51°23.794 2°29.799 149.9 0.7 48 32.8
2005-03-18 10:21:58 51°23.801 2°29.813 146.6 0.6 48 32.9
2005-03-18 10:22:58 51°23.809 2°29.826 148 0.8 52 32.6
2005-03-18 10:23:58 51°23.816 2°29.839 147.8 0.7 51 32.8
2005-03-18 10:24:58 51°23.822 2°29.852 145.8 0.8 55 32.9
2005-03-18 10:25:58 51°23.8 2°29.874 183.2 2.7 165 32.2
2005-03-18 10:26:59 51°23.805 2°29.889 179.2 0.9 29 32.6
2005-03-18 10:27:59 51°23.789 2°29.902 188.6 2 170 33
2005-03-18 10:28:59 51°23.757 2°29.89 218.1 1.8 206 33.2
2005-03-18 10:29:58 51°23.74 2°29.857 251.3 1.6 252 32.9
2005-03-18 10:30:58 51°23.746 2°29.855 295.3 0.7 52 32.7
2005-03-18 10:31:59 51°23.752 2°29.87 320 0.6 57 32.7
2005-03-18 10:32:58 51°23.757 2°29.882 333.9 0.5 59 33.1
2005-03-18 10:33:58 51°23.763 2°29.894 341.8 0.7 55 32.9
2005-03-18 10:34:59 51°23.771 2°29.905 340.1 0.7 49 32.7
2005-03-18 10:35:58 51°23.779 2°29.914 332.4 0.7 33 32.5
2005-03-18 10:36:58 51°23.787 2°29.923 329.1 0.6 25 33.2
2005-03-18 10:37:58 51°23.797 2°29.93 327.7 0.6 29 33.3
2005-03-18 10:38:58 51°23.807 2°29.939 328.7 0.6 21 32.6
2005-03-18 10:39:58 51°23.816 2°29.946 328.8 0.6 19 32.7
2005-03-18 10:40:59 51°23.826 2°29.954 326.3 0.7 24 32.9
2005-03-18 10:41:59 51°23.84 2°29.955 323.5 1.5 338 32.7
2005-03-18 10:42:58 51°23.856 2°29.895 270.3 2.7 274 32.7
2005-03-18 10:43:59 51°23.845 2°29.835 233.9 2.2 238 32.5
2005-03-18 10:44:59 51°23.831 2°29.802 229.9 1 232 32.3
2005-03-18 10:45:58 51°23.828 2°29.8 214.8 0.2 83 32.5
2005-03-18 10:46:59 51°23.834 2°29.812 184.6 0.7 35 32.3
2005-03-18 10:47:58 51°23.844 2°29.822 154.7 0.6 22 32.5
2005-03-18 10:48:58 51°23.853 2°29.83 136.8 0.7 56 32.3
2005-03-18 10:49:59 51°23.857 2°29.843 140.3 0.6 62 32.6
2005-03-18 10:50:58 51°23.861 2°29.856 139.4 0.5 75 32.5
2005-03-18 10:51:58 51°23.863 2°29.87 142.7 0.6 72 32.4
2005-03-18 10:52:59 51°23.866 2°29.882 146.7 0.5 80 32.5
2005-03-18 10:53:58 51°23.852 2°29.901 167.5 2 156 32.3
2005-03-18 10:54:59 51°23.819 2°29.907 190.3 2 178 32.4
2005-03-18 10:55:59 51°23.793 2°29.901 203.6 1.5 192 33.2
2005-03-18 10:56:59 51°23.784 2°29.907 193.6 0.6 124 32.7
2005-03-18 10:57:58 51°23.785 2°29.92 165.4 0.5 68 32.6
2005-03-18 10:58:59 51°23.788 2°29.931 146.6 0.4 62 32.9
2005-03-18 10:59:59 51°23.791 2°29.94 140.7 0.3 53 33.2
2005-03-18 11:00:58 51°23.794 2°29.949 142.9 0.4 53 33
2005-03-18 11:01:59 51°23.798 2°29.956 142.5 0.4 28 32.9
2005-03-18 11:02:58 51°23.8 2°29.966 145.6 0.9 134 32.9
2005-03-18 11:03:58 51°23.77 2°29.981 186.2 2.4 178 33
2005-03-18 11:04:59 51°23.731 2°29.946 233.9 2.9 228 32.6
2005-03-18 11:05:58 51°23.725 2°29.902 272.1 1.2 282 32.2
2005-03-18 11:06:58 51°23.734 2°29.895 307 0.6 348 32.6
2005-03-18 11:07:59 51°23.742 2°29.899 332.9 0.7 12 32.6
2005-03-18 11:08:58 51°23.75 2°29.904 338.2 0.5 15 33
2005-03-18 11:09:59 51°23.757 2°29.907 334.8 0.4 24 32.9
2005-03-18 11:10:58 51°23.765 2°29.908 330.9 0.4 10 32.7
2005-03-18 11:11:59 51°23.771 2°29.911 327.3 0.4 8 32.5
2005-03-18 11:12:59 51°23.78 2°29.914 330.2 0.4 359 32.6
2005-03-18 11:13:59 51°23.787 2°29.917 329 0.3 14 33
2005-03-18 11:14:58 51°23.792 2°29.921 332.2 0.4 13 33.2
2005-03-18 11:15:59 51°23.799 2°29.925 334.1 0.4 9 33
2005-03-18 11:16:59 51°23.805 2°29.929 333 0.5 2 32.6
2005-03-18 11:17:59 51°23.811 2°29.931 330.9 0.4 5 32.8
2005-03-18 11:18:59 51°23.818 2°29.937 333.2 0.3 10 32.9
2005-03-18 11:19:59 51°23.823 2°29.941 332.6 0.4 29 32.6
2005-03-18 11:20:58 51°23.832 2°29.944 330.6 1 347 32.6
2005-03-18 11:21:58 51°23.851 2°29.901 290.5 2.4 295 32.6
2005-03-18 11:22:59 51°23.851 2°29.832 253.1 2.4 255 32.5
2005-03-18 11:23:59 51°23.845 2°29.795 250.3 1 263 32.1
2005-03-18 11:24:59 51°23.825 2°29.743 222.8 2.8 225 32.7
2005-03-18 11:25:59 51°23.809 2°29.734 188.7 0.4 142 32.5
2005-03-18 11:26:58 51°23.809 2°29.743 154.7 0.3 68 31.9
2005-03-18 11:27:58 51°23.809 2°29.75 135.4 0.4 96 32.2
2005-03-18 11:28:58 51°23.77 2°29.774 180.5 4.1 177 31.6
2005-03-18 11:29:59 51°23.725 2°29.698 266.1 3.8 263 33.1
2005-03-18 11:30:59 51°23.733 2°29.654 300.8 0.8 313 32.7
2005-03-18 11:31:59 51°23.741 2°29.646 318.6 0.5 3 32.8
2005-03-18 11:32:59 51°23.751 2°29.64 322.5 1.3 324 32.8
2005-03-18 11:33:58 51°23.762 2°29.567 265.2 3.5 261 32.9
2005-03-18 11:34:59 51°23.756 2°29.533 249.3 0.6 47 33
2005-03-18 11:35:58 51°23.765 2°29.557 260.6 1.2 63 32.8
2005-03-18 11:36:59 51°23.766 2°29.583 294.3 0.8 105 33.1
2005-03-18 11:37:58 51°23.762 2°29.6 317.3 0.5 126 32.8
2005-03-18 11:38:58 51°23.759 2°29.607 329.5 0.2 109 33.1
2005-03-18 11:39:58 51°23.761 2°29.608 330.6 0.1 351 32.9
2005-03-18 11:40:59 51°23.765 2°29.606 325 0.3 353 33.1
2005-03-18 11:41:59 51°23.769 2°29.602 319 0.4 352 33
2005-03-18 11:42:59 51°23.774 2°29.599 317.8 0.4 325 33.2
2005-03-18 11:43:58 51°23.778 2°29.599 317.9 0.3 336 33
2005-03-18 11:44:58 51°23.781 2°29.599 316 0.3 350 33.5
2005-03-18 11:45:59 51°23.781 2°29.6 313.5 0.3 24 32.9
2005-03-18 11:46:59 51°23.781 2°29.604 312.6 0.2 110 33.1
2005-03-18 11:47:58 51°23.78 2°29.607 311.4 0.1 170 33.2
2005-03-18 11:48:59 51°23.78 2°29.608 308.5 0.1 325 33.2
2005-03-18 11:49:58 51°23.78 2°29.607 306.4 -999 -999 33.1
2005-03-18 11:50:59 51°23.78 2°29.605 307.8 0.1 9 32.9
2005-03-18 11:51:59 51°23.781 2°29.603 308.4 0.1 248 33.2
2005-03-18 11:52:59 51°23.782 2°29.602 310.9 0.1 160 33
2005-03-18 11:53:59 51°23.782 2°29.603 311.3 0.1 146 32.9
2005-03-18 11:54:59 51°23.781 2°29.604 313 0.1 38 33.3
2005-03-18 11:55:58 51°23.78 2°29.603 311.9 0.1 71 33.2
2005-03-18 11:56:59 51°23.779 2°29.604 313.3 0.1 212 33
2005-03-18 11:57:58 51°23.779 2°29.604 314.6 0.1 85 33.2
2005-03-18 11:58:59 51°23.779 2°29.604 315.3 0.1 147 32.9
2005-03-18 11:59:59 51°23.778 2°29.606 314.2 0.1 148 33.1
2005-03-18 12:00:59 51°23.778 2°29.606 316.7 0.1 222 33
2005-03-18 12:01:58 51°23.779 2°29.606 317.1 0.1 334 33.1
2005-03-18 12:02:58 51°23.779 2°29.604 313.2 0.1 282 33.1
2005-03-18 12:03:59 51°23.78 2°29.604 314.7 0.2 276 33.1
2005-03-18 12:04:59 51°23.781 2°29.603 313.9 0.1 308 33.1
2005-03-18 12:05:59 51°23.781 2°29.603 316.8 0.1 200 32.9
2005-03-18 12:06:58 51°23.78 2°29.604 313 0.2 96 32.9
2005-03-18 12:07:59 51°23.778 2°29.606 314.7 0.2 186 32.8
2005-03-18 12:08:58 51°23.778 2°29.605 315.9 0.1 212 33.3
2005-03-18 12:09:59 51°23.778 2°29.606 316.7 0.2 220 33.3
2005-03-18 12:10:58 51°23.778 2°29.606 315.1 0.1 2 33.1
2005-03-18 12:11:59 51°23.777 2°29.606 316.5 0.2 190 33
2005-03-18 12:12:59 51°23.777 2°29.607 319.9 0.1 198 33.1
2005-03-18 12:13:58 51°23.776 2°29.607 317.7 0.1 133 33
2005-03-18 12:14:59 51°23.775 2°29.606 318 0.1 223 33.1
2005-03-18 12:15:59 51°23.776 2°29.606 319.3 0.1 95 32.5
2005-03-18 12:16:59 51°23.776 2°29.605 317.9 0.1 339 33.3
2005-03-18 12:17:59 51°23.777 2°29.604 318.6 0.1 333 33.2
2005-03-18 12:18:58 51°23.778 2°29.602 315.6 0.2 227 33
2005-03-18 12:19:59 51°23.778 2°29.601 314.4 0.1 17 33
2005-03-18 12:20:59 51°23.779 2°29.601 318.5 0.1 109 32.7
2005-03-18 12:21:58 51°23.777 2°29.602 320.7 0.1 184 33.1
2005-03-18 12:22:58 51°23.775 2°29.602 321.2 -999 210 33.1
2005-03-18 12:23:59 51°23.774 2°29.602 323.6 0.1 226 33.1
2005-03-18 12:24:59 51°23.773 2°29.603 325.5 0.1 188 33.4
2005-03-18 12:25:59 51°23.774 2°29.604 325.4 0.1 77 32.8
2005-03-18 12:26:58 51°23.774 2°29.601 322 0.2 267 33.2
2005-03-18 12:27:59 51°23.774 2°29.599 320.8 0.1 9 33.1
2005-03-18 12:28:59 51°23.776 2°29.598 319.7 0.1 349 33.1
2005-03-18 12:29:58 51°23.778 2°29.596 318.9 0.2 279 33.1
2005-03-18 12:30:59 51°23.78 2°29.596 317.8 0.2 349 33.4
2005-03-18 12:31:58 51°23.782 2°29.597 321.3 0.2 51 33.2
2005-03-18 12:32:58 51°23.782 2°29.599 322.2 0.1 156 32.9
2005-03-18 12:33:59 51°23.781 2°29.602 320.3 0.1 147 33
2005-03-18 12:34:58 51°23.778 2°29.604 316.9 0.2 111 33.2
2005-03-18 12:35:58 51°23.776 2°29.606 317.1 0.3 195 33
2005-03-18 12:36:58 51°23.776 2°29.607 318.2 0.1 219 33
2005-03-18 12:37:58 51°23.776 2°29.606 317.7 0.1 337 33.1
2005-03-18 12:38:59 51°23.776 2°29.606 316.6 0.2 220 33.3
2005-03-18 12:39:59 51°23.777 2°29.604 316.8 0.2 299 33
2005-03-18 12:40:58 51°23.778 2°29.602 316.6 0.1 22 33.1
2005-03-18 12:41:58 51°23.779 2°29.603 318.4 -999 359 33
2005-03-18 12:42:59 51°23.779 2°29.603 317.8 0.1 109 33.5
2005-03-18 12:43:58 51°23.778 2°29.603 316.1 0.2 213 33.3
2005-03-18 12:44:59 51°23.779 2°29.604 318.3 0.1 14 33
2005-03-18 12:45:59 51°23.778 2°29.603 316.2 0.1 150 32.8
2005-03-18 12:46:59 51°23.778 2°29.604 315.2 -999 89 33.4
2005-03-18 12:47:59 51°23.778 2°29.604 314.9 0.1 28 33
2005-03-18 12:48:59 51°23.778 2°29.604 314.7 -999 177 33.2
2005-03-18 12:49:58 51°23.778 2°29.606 315.9 0.1 152 33.3
2005-03-18 12:50:59 51°23.775 2°29.607 317.2 0.1 91 33.3
2005-03-18 12:51:59 51°23.774 2°29.607 317.6 0.2 243 33.4
2005-03-18 12:52:58 51°23.774 2°29.605 316.9 0.3 31 33
2005-03-18 12:53:59 51°23.773 2°29.603 316.6 0.3 224 33.4
2005-03-18 12:54:59 51°23.773 2°29.603 318.3 0.2 206 33.3
2005-03-18 12:55:59 51°23.772 2°29.603 323.5 -999 288 33.6
2005-03-18 12:56:58 51°23.772 2°29.601 319.8 0.2 5 33.6
2005-03-18 12:57:59 51°23.772 2°29.6 317.7 0.1 151 33.4
2005-03-18 12:58:58 51°23.77 2°29.601 321.8 0.1 169 33.5
2005-03-18 12:59:59 51°23.767 2°29.601 327.7 0.1 185 33.5
2005-03-18 13:00:59 51°23.766 2°29.6 326.2 0.2 74 33.2
2005-03-18 13:01:59 51°23.766 2°29.598 325.1 0.1 252 33.6
2005-03-18 13:02:58 51°23.765 2°29.595 325.9 0.1 233 33.3
2005-03-18 13:03:59 51°23.765 2°29.591 323.6 0.1 21 33.1
2005-03-18 13:04:59 51°23.764 2°29.587 323.8 -999 303 33.4
2005-03-18 13:05:58 51°23.764 2°29.584 324 0.2 230 33.3
2005-03-18 13:06:59 51°23.765 2°29.584 327.2 0.2 215 32.9
2005-03-18 13:07:59 51°23.764 2°29.582 328.8 0.2 241 33.5
2005-03-18 13:08:59 51°23.764 2°29.58 331 0.2 245 33.1
2005-03-18 13:09:59 51°23.763 2°29.58 329.8 0.1 213 33.5
2005-03-18 13:10:59 51°23.763 2°29.579 328.7 0.1 267 33.4
2005-03-18 13:11:59 51°23.762 2°29.579 328.4 0.1 126 33.4
2005-03-18 13:12:59 51°23.76 2°29.58 330.4 0.1 218 33.6
2005-03-18 13:13:58 51°23.76 2°29.58 328.8 0.1 258 33.6
2005-03-18 13:14:59 51°23.76 2°29.579 327.6 -999 145 33.5
2005-03-18 13:15:58 51°23.76 2°29.577 328.8 -999 305 33.6
2005-03-18 13:16:59 51°23.759 2°29.577 329.5 0.2 220 33.6
2005-03-18 13:17:59 51°23.757 2°29.576 330.2 0.2 217 33.4
2005-03-18 13:18:59 51°23.756 2°29.574 331.9 0.2 277 33.2
2005-03-18 13:19:59 51°23.756 2°29.573 335.3 0.1 134 33.3
2005-03-18 13:20:58 51°23.756 2°29.571 333.1 0.1 303 33.5
2005-03-18 13:21:59 51°23.756 2°29.567 330.7 0.3 264 33
2005-03-18 13:22:59 51°23.757 2°29.563 329.1 0.1 274 33.1
2005-03-18 13:23:58 51°23.757 2°29.56 328.3 0.1 261 33.2
2005-03-18 13:24:59 51°23.758 2°29.555 326.6 0.2 300 33.4
2005-03-18 13:25:59 51°23.759 2°29.553 327.8 0.1 326 33.2
2005-03-18 13:26:59 51°23.759 2°29.551 326.4 0.1 350 33.3
2005-03-18 13:27:59 51°23.76 2°29.55 329.8 0.2 294 33.2
2005-03-18 13:28:58 51°23.76 2°29.548 328.6 0.1 190 33.2
2005-03-18 13:29:58 51°23.761 2°29.548 329.9 0.1 184 33.6
2005-03-18 13:30:59 51°23.765 2°29.54 323.6 0.7 311 33.3
2005-03-18 13:31:59 51°23.769 2°29.529 317.8 0.6 293 33.4
2005-03-18 13:32:58 51°23.77 2°29.523 317.1 0.3 247 33.2
2005-03-18 13:33:58 51°23.767 2°29.522 313.3 0.3 132 33.4
2005-03-18 13:34:59 51°23.768 2°29.518 316.8 0.5 294 33.5
2005-03-18 13:35:59 51°23.776 2°29.494 304.2 1.7 290 33.2
2005-03-18 13:36:59 51°23.77 2°29.414 250.3 3.8 241 33.7
2005-03-18 13:37:58 51°23.717 2°29.386 164.5 3.6 162 33.4
2005-03-18 13:38:59 51°23.688 2°29.465 94 3.9 98 33.6
2005-03-18 13:39:59 51°23.669 2°29.596 95 5.4 97 33.8
2005-03-18 13:40:58 51°23.677 2°29.71 82.8 3.4 82 33.2
2005-03-18 13:41:59 51°23.673 2°29.741 121 0.3 156 33.2
2005-03-18 13:42:58 51°23.673 2°29.739 135.7 0.3 291 33.2
2005-03-18 13:43:59 51°23.681 2°29.716 115.4 1.1 289 33.1
2005-03-18 13:44:58 51°23.685 2°29.694 100.7 0.5 258 32.9
2005-03-18 13:45:59 51°23.685 2°29.688 106.6 0.1 149 33.1
2005-03-18 13:46:59 51°23.682 2°29.693 122.4 0.4 162 33.2
2005-03-18 13:47:59 51°23.683 2°29.686 133.5 0.9 305 33.1
2005-03-18 13:49:00 51°23.683 2°29.693 101 1.3 112 33.4
2005-03-18 13:49:58 51°23.691 2°29.749 61.9 2.5 58 33.1
2005-03-18 13:50:58 51°23.722 2°29.793 38 2.5 37 33.5
2005-03-18 13:52:00 51°23.725 2°29.794 55.9 0.5 210 33.4
2005-03-18 13:52:59 51°23.724 2°29.798 64.7 0.4 65 33.6
2005-03-18 13:53:59 51°23.723 2°29.798 87.8 0.6 88 33.6
2005-03-18 13:54:58 51°23.723 2°29.829 88 1.3 98 33.7
2005-03-18 13:55:59 51°23.72 2°29.862 99.2 0.9 103 33.6
2005-03-18 13:57:00 51°23.713 2°29.912 106.2 1.8 110 33.1
2005-03-18 13:57:58 51°23.695 2°29.951 134.9 1.7 138 33.4
2005-03-18 13:58:59 51°23.678 2°29.973 146.6 1 146 33.7
2005-03-18 13:59:59 51°23.667 2°29.986 151.6 0.7 138 33.7
2005-03-18 14:00:59 51°23.66 2°29.996 151.2 0.6 138 33.8
2005-03-18 14:01:58 51°23.655 2°30.006 150.9 0.3 119 33.2
2005-03-18 14:02:59 51°23.654 2°30.015 145.3 0.3 93 33.8
2005-03-18 14:03:59 51°23.655 2°30.022 137.8 0.2 122 33.1
2005-03-18 14:04:59 51°23.656 2°30.028 133.4 0.3 99 33.7
2005-03-18 14:05:59 51°23.649 2°30.047 137.3 1.2 136 33.2
2005-03-18 14:06:59 51°23.568 2°30.195 129.5 9.9 129 33.3
2005-03-18 14:07:59 51°23.445 2°30.45 129.3 13.2 130 33.4
2005-03-18 14:08:59 51°23.254 2°30.618 159.3 13.3 156 32
2005-03-18 14:09:59 51°23.046 2°30.756 159.4 13.5 156 30.4
2005-03-18 14:10:58 51°22.844 2°30.891 158.8 13.2 156 26.9
2005-03-18 14:11:58 51°22.646 2°31.047 150.3 13.5 148 30.8
2005-03-18 14:12:58 51°22.469 2°31.257 140.2 13.4 139 31.3
2005-03-18 14:13:59 51°22.323 2°31.522 126 13.2 123 30.8
2005-03-18 14:14:59 51°22.192 2°31.801 130 13 123 31.9
2005-03-18 14:15:59 51°22.07 2°32.09 123 13.1 119 30.5
2005-03-18 14:16:59 51°21.967 2°32.397 116.6 12.6 113 30
2005-03-18 14:17:58 51°21.871 2°32.702 119.4 13.2 122 27.2
2005-03-18 14:18:59 51°21.784 2°33.033 108.8 13.6 112 22.8
2005-03-18 14:19:58 51°21.712 2°33.36 111.7 13 110 23.8
2005-03-18 14:20:58 51°21.626 2°33.693 114.4 13.3 110 29.7
2005-03-18 14:21:59 51°21.54 2°34.024 114.4 13.4 111 32.5
2005-03-18 14:22:58 51°21.448 2°34.342 118.1 13.2 114 30.2
2005-03-18 14:23:59 51°21.363 2°34.671 113.3 13.3 111 34.5
2005-03-18 14:24:59 51°21.266 2°34.981 121 13.2 118 35.8
2005-03-18 14:25:59 51°21.16 2°35.288 119.1 13.2 119 32
2005-03-18 14:26:59 51°21.053 2°35.597 120.3 13.4 118 27.3
2005-03-18 14:27:58 51°20.928 2°35.882 130.4 13.3 134 28.9
2005-03-18 14:28:59 51°20.785 2°36.158 130.7 13.2 128 24.3
2005-03-18 14:29:58 51°20.642 2°36.428 130.4 13.5 134 21.1
2005-03-18 14:30:59 51°20.499 2°36.706 131.3 13.1 125 21.4
2005-03-18 14:31:59 51°20.357 2°36.977 130 13.4 130 22
2005-03-18 14:32:58 51°20.214 2°37.251 131.4 13.4 127 21.7
2005-03-18 14:33:58 51°20.068 2°37.526 128.8 13.7 128 23
2005-03-18 14:34:59 51°19.924 2°37.804 129.5 13.5 130 22.7
2005-03-18 14:35:58 51°19.783 2°38.078 129.7 13.4 122 22.9
2005-03-18 14:36:59 51°19.636 2°38.355 131.3 13.4 131 22.9
2005-03-18 14:37:59 51°19.494 2°38.633 129.6 13.6 132 25.9
2005-03-18 14:38:58 51°19.351 2°38.907 129.9 13.3 128 28.5
2005-03-18 14:40:00 51°19.205 2°39.192 128.6 13.5 125 29
2005-03-18 14:40:59 51°19.065 2°39.468 127.7 13.5 131 26.7
2005-03-18 14:41:59 51°18.931 2°39.758 131.1 13.7 135 24.5
2005-03-18 14:42:58 51°18.799 2°40.04 129.5 13.5 129 23.4
2005-03-18 14:43:58 51°18.671 2°40.328 127.4 13.4 125 22.1
2005-03-18 14:44:59 51°18.533 2°40.616 128.9 13.3 129 14.1
2005-03-18 14:45:58 51°18.401 2°40.892 127.1 13.3 128 15.2
2005-03-18 14:46:58 51°18.263 2°41.176 126.6 13.6 124 20.3
2005-03-18 14:47:58 51°18.133 2°41.472 126.6 13.4 124 23
2005-03-18 14:48:58 51°18.002 2°41.768 127.5 13.8 124 24.3
2005-03-18 14:49:58 51°17.873 2°42.063 126.1 13.9 126 24.5
2005-03-18 14:50:59 51°17.744 2°42.363 125.6 13.5 126 24.1
2005-03-18 14:51:59 51°17.614 2°42.654 127 13.3 128 22.3
2005-03-18 14:52:58 51°17.488 2°42.94 124.5 12.9 122 11.3
2005-03-18 14:53:58 51°17.362 2°43.231 125.5 13.5 121 12.8
2005-03-18 14:54:58 51°17.225 2°43.522 126.4 13.7 131 15.2
2005-03-18 14:55:59 51°17.086 2°43.813 127.1 13.4 130 15.3
2005-03-18 14:56:58 51°16.955 2°44.095 124.4 13.6 122 16.2
2005-03-18 14:58:00 51°16.817 2°44.396 127.1 13.5 128 15.5
2005-03-18 14:59:00 51°16.683 2°44.684 122.7 13.7 122 13.6
2005-03-18 14:59:59 51°16.554 2°44.972 124.1 13.7 122 11.5
2005-03-18 15:00:59 51°16.418 2°45.261 127 13.7 128 12.1
2005-03-18 15:01:59 51°16.285 2°45.556 126.4 13.8 128 11.2
2005-03-18 15:03:00 51°16.149 2°45.854 126.2 14 127 11.6
2005-03-18 15:03:59 51°16.014 2°46.149 124.6 14 123 13.4
2005-03-18 15:04:59 51°15.913 2°46.466 109.2 13.5 107 16.6
2005-03-18 15:05:59 51°15.838 2°46.818 110.9 13.9 110 17.4
2005-03-18 15:06:59 51°15.777 2°47.169 103.8 13.7 103 16.6
2005-03-18 15:07:58 51°15.74 2°47.523 101.5 13.6 101 15.3
2005-03-18 15:08:59 51°15.693 2°47.882 102.3 13.7 100 13.6
2005-03-18 15:09:59 51°15.646 2°48.234 103.2 13.7 105 12.1
2005-03-18 15:10:59 51°15.613 2°48.588 98.6 13.6 99 11.4
2005-03-18 15:11:59 51°15.577 2°48.946 99.2 13.8 98 11.5
2005-03-18 15:12:58 51°15.544 2°49.296 99.4 13.5 99 13.5
2005-03-18 15:13:59 51°15.509 2°49.661 100.3 13.8 99 13.8
2005-03-18 15:14:59 51°15.476 2°50.024 99.7 13.6 98 13.8
2005-03-18 15:15:59 51°15.445 2°50.384 96.5 13.8 95 13.7
2005-03-18 15:16:58 51°15.427 2°50.737 94.9 13.7 94 13.6
2005-03-18 15:17:59 51°15.413 2°51.107 94.8 13.9 94 13.4
2005-03-18 15:18:58 51°15.397 2°51.466 99.5 13.5 100 13.2
2005-03-18 15:19:59 51°15.309 2°51.806 115.9 13.7 114 13.1
2005-03-18 15:20:58 51°15.218 2°52.132 114.4 13.5 113 12.6
2005-03-18 15:21:59 51°15.125 2°52.467 117.6 13.6 117 12
2005-03-18 15:22:58 51°15.035 2°52.795 113.9 13.8 115 11.8
2005-03-18 15:23:59 51°14.943 2°53.136 115.9 13.8 114 11.6
2005-03-18 15:24:59 51°14.845 2°53.461 121.7 13.6 121 11.5
2005-03-18 15:25:59 51°14.735 2°53.779 121.8 13.9 121 11.2
2005-03-18 15:26:59 51°14.628 2°54.097 120.7 13.5 118 11.6
2005-03-18 15:27:58 51°14.529 2°54.392 119.6 12.6 116 11.4
2005-03-18 15:28:58 51°14.449 2°54.656 117.7 11 114 11.5
2005-03-18 15:29:59 51°14.377 2°54.954 112.8 12.2 107 10.7
2005-03-18 15:30:59 51°14.292 2°55.208 128.3 9.9 126 11.2
2005-03-18 15:31:58 51°14.18 2°55.373 148.8 8.8 148 11.7
2005-03-18 15:32:58 51°14.064 2°55.462 158.8 7.3 156 10.5
2005-03-18 15:34:00 51°13.957 2°55.539 158.9 6.8 155 -999
2005-03-18 15:35:00 51°13.855 2°55.613 158.1 6.7 154 -999
2005-03-18 15:36:00 51°13.77 2°55.691 148.1 5.2 143 -999
2005-03-18 15:36:59 51°13.708 2°55.797 132.2 5.8 130 10.8
2005-03-18 15:38:00 51°13.653 2°55.915 127.3 5.5 126 10.2
2005-03-18 15:38:58 51°13.617 2°56.025 123.7 4.6 120 10.2
2005-03-18 15:39:59 51°13.598 2°56.095 111.3 0.6 87 8.3